Terminal Aerodrome Forecast
Issued by NWS Portland, ME

Home | Current Version | Previous Version | Text Only | Print | Product List | Glossary On
Versions: 1 2 3 4 5 6 7 8 9 10 11 12 13 14 15 16
000
FTUS41 KGYX 201735
TAFCON
TAF
KCON 201735Z 2018/2118 VRB03KT P6SM BKN030
     FM210600 17005KT 3SM BR BKN015
     FM211200 16003KT 4SM -RA BR OVC007=

USA.gov is the U.S. government's official web portal to all federal, state and local government web resources and services.